sensor_id;sensor_type;location;lat;lon;timestamp;pressure;altitude;pressure_sealevel;temperature;humidity
17521;BME280;8878;-33.370;-70.552;2023-11-21T00:01:33;92192.69;;;19.27;48.83
17521;BME280;8878;-33.370;-70.552;2023-11-21T00:04:02;92199.16;;;19.17;49.16
17521;BME280;8878;-33.370;-70.552;2023-11-21T00:06:32;92198.84;;;19.10;49.45
17521;BME280;8878;-33.370;-70.552;2023-11-21T00:09:01;92201.84;;;19.00;49.91
17521;BME280;8878;-33.370;-70.552;2023-11-21T00:11:31;92205.00;;;19.02;50.31
17521;BME280;8878;-33.370;-70.552;2023-11-21T00:14:03;92207.31;;;19.12;49.73
17521;BME280;8878;-33.370;-70.552;2023-11-21T00:16:33;92217.88;;;19.08;50.38
17521;BME280;8878;-33.370;-70.552;2023-11-21T00:19:03;92215.38;;;19.03;50.53
17521;BME280;8878;-33.370;-70.552;2023-11-21T00:21:32;92223.84;;;19.05;50.17
17521;BME280;8878;-33.370;-70.552;2023-11-21T00:24:04;92221.34;;;19.00;49.98
17521;BME280;8878;-33.370;-70.552;2023-11-21T00:26:34;92231.09;;;18.96;50.49
17521;BME280;8878;-33.370;-70.552;2023-11-21T00:29:06;92238.47;;;18.99;50.22
17521;BME280;8878;-33.370;-70.552;2023-11-21T00:31:35;92240.66;;;18.97;50.37
17521;BME280;8878;-33.370;-70.552;2023-11-21T00:34:05;92245.41;;;18.92;50.41
17521;BME280;8878;-33.370;-70.552;2023-11-21T00:36:35;92252.00;;;18.86;51.12
17521;BME280;8878;-33.370;-70.552;2023-11-21T00:39:04;92237.84;;;18.76;50.97
17521;BME280;8878;-33.370;-70.552;2023-11-21T00:41:34;92249.78;;;18.70;51.43
17521;BME280;8878;-33.370;-70.552;2023-11-21T00:44:06;92251.66;;;18.70;52.14
17521;BME280;8878;-33.370;-70.552;2023-11-21T00:46:35;92242.09;;;18.77;52.24
17521;BME280;8878;-33.370;-70.552;2023-11-21T00:49:05;92240.22;;;18.87;52.26
17521;BME280;8878;-33.370;-70.552;2023-11-21T00:51:34;92247.63;;;18.90;51.63
17521;BME280;8878;-33.370;-70.552;2023-11-21T00:54:05;92250.28;;;18.90;52.70
17521;BME280;8878;-33.370;-70.552;2023-11-21T00:56:35;92254.84;;;18.81;54.91
17521;BME280;8878;-33.370;-70.552;2023-11-21T00:59:04;92247.25;;;18.65;57.28
17521;BME280;8878;-33.370;-70.552;2023-11-21T01:01:40;92245.78;;;18.51;58.44
17521;BME280;8878;-33.370;-70.552;2023-11-21T01:04:09;92243.72;;;18.39;58.47
17521;BME280;8878;-33.370;-70.552;2023-11-21T01:06:39;92240.09;;;18.35;58.65
17521;BME280;8878;-33.370;-70.552;2023-11-21T01:09:08;92244.34;;;18.36;58.16
17521;BME280;8878;-33.370;-70.552;2023-11-21T01:11:38;92235.06;;;18.33;58.68
17521;BME280;8878;-33.370;-70.552;2023-11-21T01:14:07;92243.53;;;18.27;58.51
17521;BME280;8878;-33.370;-70.552;2023-11-21T01:16:38;92242.09;;;18.21;59.62
17521;BME280;8878;-33.370;-70.552;2023-11-21T01:19:08;92239.72;;;18.11;60.64
17521;BME280;8878;-33.370;-70.552;2023-11-21T01:21:38;92234.66;;;18.00;61.24
17521;BME280;8878;-33.370;-70.552;2023-11-21T01:24:10;92235.25;;;17.89;62.11
17521;BME280;8878;-33.370;-70.552;2023-11-21T01:26:40;92239.75;;;17.80;62.21
17521;BME280;8878;-33.370;-70.552;2023-11-21T01:29:10;92250.22;;;17.76;63.14
17521;BME280;8878;-33.370;-70.552;2023-11-21T01:31:41;92234.56;;;17.75;63.01
17521;BME280;8878;-33.370;-70.552;2023-11-21T01:34:10;92233.41;;;17.67;64.44
17521;BME280;8878;-33.370;-70.552;2023-11-21T01:36:40;92235.44;;;17.62;65.03
17521;BME280;8878;-33.370;-70.552;2023-11-21T01:39:08;92221.88;;;17.58;64.03
17521;BME280;8878;-33.370;-70.552;2023-11-21T01:41:42;92234.25;;;17.54;65.10
17521;BME280;8878;-33.370;-70.552;2023-11-21T01:44:12;92237.47;;;17.42;65.00
17521;BME280;8878;-33.370;-70.552;2023-11-21T01:46:43;92237.91;;;17.36;65.55
17521;BME280;8878;-33.370;-70.552;2023-11-21T01:49:13;92240.06;;;17.34;65.23
17521;BME280;8878;-33.370;-70.552;2023-11-21T01:51:44;92233.28;;;17.28;65.28
17521;BME280;8878;-33.370;-70.552;2023-11-21T01:54:16;92235.44;;;17.17;66.83
17521;BME280;8878;-33.370;-70.552;2023-11-21T01:56:47;92239.97;;;17.16;67.21
17521;BME280;8878;-33.370;-70.552;2023-11-21T01:59:20;92236.47;;;17.07;67.68
17521;BME280;8878;-33.370;-70.552;2023-11-21T02:01:52;92243.50;;;17.03;68.54
17521;BME280;8878;-33.370;-70.552;2023-11-21T02:04:23;92249.72;;;16.99;69.32
17521;BME280;8878;-33.370;-70.552;2023-11-21T02:06:52;92248.75;;;16.95;69.05
17521;BME280;8878;-33.370;-70.552;2023-11-21T02:09:25;92244.34;;;16.90;69.75
17521;BME280;8878;-33.370;-70.552;2023-11-21T02:11:55;92244.94;;;16.87;69.74
17521;BME280;8878;-33.370;-70.552;2023-11-21T02:14:25;92252.53;;;16.80;70.78
17521;BME280;8878;-33.370;-70.552;2023-11-21T02:16:56;92263.22;;;16.80;70.22
17521;BME280;8878;-33.370;-70.552;2023-11-21T02:19:27;92257.78;;;16.71;69.09
17521;BME280;8878;-33.370;-70.552;2023-11-21T02:21:57;92258.09;;;16.70;68.37
17521;BME280;8878;-33.370;-70.552;2023-11-21T02:24:29;92253.47;;;16.75;69.07
17521;BME280;8878;-33.370;-70.552;2023-11-21T02:26:58;92257.00;;;16.71;68.63
17521;BME280;8878;-33.370;-70.552;2023-11-21T02:29:28;92254.97;;;16.68;68.76
17521;BME280;8878;-33.370;-70.552;2023-11-21T02:31:57;92265.41;;;16.64;70.15
17521;BME280;8878;-33.370;-70.552;2023-11-21T02:34:26;92266.41;;;16.55;71.16
17521;BME280;8878;-33.370;-70.552;2023-11-21T02:36:56;92262.28;;;16.62;71.52
17521;BME280;8878;-33.370;-70.552;2023-11-21T02:39:25;92265.63;;;16.68;73.86
17521;BME280;8878;-33.370;-70.552;2023-11-21T02:41:56;92263.03;;;16.63;75.30
17521;BME280;8878;-33.370;-70.552;2023-11-21T02:44:25;92272.53;;;16.55;76.11
17521;BME280;8878;-33.370;-70.552;2023-11-21T02:46:55;92270.63;;;16.56;75.27
17521;BME280;8878;-33.370;-70.552;2023-11-21T02:49:24;92269.66;;;16.52;75.11
17521;BME280;8878;-33.370;-70.552;2023-11-21T02:51:55;92270.06;;;16.45;77.53
17521;BME280;8878;-33.370;-70.552;2023-11-21T02:54:25;92271.38;;;16.34;78.72
17521;BME280;8878;-33.370;-70.552;2023-11-21T02:56:56;92261.09;;;16.27;79.01
17521;BME280;8878;-33.370;-70.552;2023-11-21T02:59:26;92250.16;;;16.29;77.82
17521;BME280;8878;-33.370;-70.552;2023-11-21T03:01:55;92246.22;;;16.26;78.23
17521;BME280;8878;-33.370;-70.552;2023-11-21T03:04:24;92243.19;;;16.19;79.15
17521;BME280;8878;-33.370;-70.552;2023-11-21T03:06:54;92235.78;;;16.16;79.15
17521;BME280;8878;-33.370;-70.552;2023-11-21T03:09:23;92237.47;;;16.12;79.34
17521;BME280;8878;-33.370;-70.552;2023-11-21T03:11:56;92224.53;;;15.92;80.52
17521;BME280;8878;-33.370;-70.552;2023-11-21T03:14:26;92239.41;;;15.79;79.79
17521;BME280;8878;-33.370;-70.552;2023-11-21T03:16:55;92227.50;;;15.63;78.66
17521;BME280;8878;-33.370;-70.552;2023-11-21T03:19:24;92219.88;;;15.56;78.43
17521;BME280;8878;-33.370;-70.552;2023-11-21T03:21:53;92225.53;;;15.55;78.09
17521;BME280;8878;-33.370;-70.552;2023-11-21T03:24:23;92224.25;;;15.66;77.44
17521;BME280;8878;-33.370;-70.552;2023-11-21T03:26:53;92216.38;;;15.75;76.53
17521;BME280;8878;-33.370;-70.552;2023-11-21T03:29:24;92221.88;;;15.92;80.38
17521;BME280;8878;-33.370;-70.552;2023-11-21T03:31:53;92211.22;;;15.92;80.69
17521;BME280;8878;-33.370;-70.552;2023-11-21T03:34:25;92212.63;;;15.89;79.54
17521;BME280;8878;-33.370;-70.552;2023-11-21T03:36:54;92206.63;;;15.84;79.19
17521;BME280;8878;-33.370;-70.552;2023-11-21T03:39:24;92203.97;;;15.84;79.42
17521;BME280;8878;-33.370;-70.552;2023-11-21T03:41:53;92209.28;;;15.84;79.23
17521;BME280;8878;-33.370;-70.552;2023-11-21T03:44:26;92199.22;;;15.81;79.00
17521;BME280;8878;-33.370;-70.552;2023-11-21T03:46:57;92197.06;;;15.83;79.31
17521;BME280;8878;-33.370;-70.552;2023-11-21T03:49:26;92199.91;;;15.73;79.76
17521;BME280;8878;-33.370;-70.552;2023-11-21T03:51:56;92190.47;;;15.66;79.98
17521;BME280;8878;-33.370;-70.552;2023-11-21T03:54:26;92187.53;;;15.49;79.29
17521;BME280;8878;-33.370;-70.552;2023-11-21T03:56:55;92185.38;;;15.51;78.85
17521;BME280;8878;-33.370;-70.552;2023-11-21T03:59:26;92195.47;;;15.54;80.23
17521;BME280;8878;-33.370;-70.552;2023-11-21T04:01:56;92189.91;;;15.37;80.29
17521;BME280;8878;-33.370;-70.552;2023-11-21T04:04:25;92185.09;;;15.39;82.59
17521;BME280;8878;-33.370;-70.552;2023-11-21T04:06:55;92184.41;;;15.47;86.10
17521;BME280;8878;-33.370;-70.552;2023-11-21T04:12:40;92167.72;;;15.28;85.21
17521;BME280;8878;-33.370;-70.552;2023-11-21T04:15:12;92166.19;;;15.27;84.67
17521;BME280;8878;-33.370;-70.552;2023-11-21T04:17:42;92158.25;;;15.08;84.73
17521;BME280;8878;-33.370;-70.552;2023-11-21T04:20:12;92156.28;;;15.14;87.37
17521;BME280;8878;-33.370;-70.552;2023-11-21T04:22:42;92156.50;;;15.17;93.78
17521;BME280;8878;-33.370;-70.552;2023-11-21T04:25:14;92153.06;;;15.17;91.80
17521;BME280;8878;-33.370;-70.552;2023-11-21T04:27:44;92144.59;;;15.15;94.38
17521;BME280;8878;-33.370;-70.552;2023-11-21T04:30:16;92150.50;;;15.12;93.72
17521;BME280;8878;-33.370;-70.552;2023-11-21T04:32:45;92139.09;;;15.11;94.72
17521;BME280;8878;-33.370;-70.552;2023-11-21T04:35:14;92141.47;;;15.13;94.37
17521;BME280;8878;-33.370;-70.552;2023-11-21T04:37:45;92141.06;;;15.19;94.42
17521;BME280;8878;-33.370;-70.552;2023-11-21T04:40:18;92133.38;;;15.18;96.19
17521;BME280;8878;-33.370;-70.552;2023-11-21T04:42:47;92137.22;;;15.12;96.41
17521;BME280;8878;-33.370;-70.552;2023-11-21T04:45:19;92135.72;;;15.06;95.53
17521;BME280;8878;-33.370;-70.552;2023-11-21T04:47:48;92125.69;;;15.03;95.17
17521;BME280;8878;-33.370;-70.552;2023-11-21T04:50:17;92128.84;;;15.05;96.03
17521;BME280;8878;-33.370;-70.552;2023-11-21T04:52:47;92131.91;;;14.79;97.63
17521;BME280;8878;-33.370;-70.552;2023-11-21T04:55:16;92136.41;;;14.65;100.00
17521;BME280;8878;-33.370;-70.552;2023-11-21T04:57:46;92131.19;;;14.60;100.00
17521;BME280;8878;-33.370;-70.552;2023-11-21T05:00:17;92123.13;;;14.65;100.00
17521;BME280;8878;-33.370;-70.552;2023-11-21T05:02:48;92122.56;;;14.68;100.00
17521;BME280;8878;-33.370;-70.552;2023-11-21T05:05:17;92122.47;;;14.73;100.00
17521;BME280;8878;-33.370;-70.552;2023-11-21T05:07:46;92116.75;;;14.66;100.00
17521;BME280;8878;-33.370;-70.552;2023-11-21T05:10:16;92115.28;;;14.74;100.00
17521;BME280;8878;-33.370;-70.552;2023-11-21T05:12:46;92114.53;;;14.87;100.00
17521;BME280;8878;-33.370;-70.552;2023-11-21T05:15:18;92108.34;;;14.92;100.00
17521;BME280;8878;-33.370;-70.552;2023-11-21T05:17:48;92116.22;;;14.97;100.00
17521;BME280;8878;-33.370;-70.552;2023-11-21T05:20:19;92109.34;;;14.96;100.00
17521;BME280;8878;-33.370;-70.552;2023-11-21T05:22:52;92110.91;;;14.97;100.00
17521;BME280;8878;-33.370;-70.552;2023-11-21T05:25:22;92113.06;;;14.95;100.00
17521;BME280;8878;-33.370;-70.552;2023-11-21T05:27:51;92110.88;;;14.69;100.00
17521;BME280;8878;-33.370;-70.552;2023-11-21T05:30:23;92109.38;;;14.63;100.00
17521;BME280;8878;-33.370;-70.552;2023-11-21T05:32:52;92112.13;;;14.72;100.00
17521;BME280;8878;-33.370;-70.552;2023-11-21T05:35:21;92107.13;;;14.70;100.00
17521;BME280;8878;-33.370;-70.552;2023-11-21T05:37:51;92114.59;;;14.68;100.00
17521;BME280;8878;-33.370;-70.552;2023-11-21T05:40:20;92110.94;;;14.64;100.00
17521;BME280;8878;-33.370;-70.552;2023-11-21T05:42:51;92111.00;;;14.59;100.00
17521;BME280;8878;-33.370;-70.552;2023-11-21T05:45:22;92109.81;;;14.52;100.00
17521;BME280;8878;-33.370;-70.552;2023-11-21T05:47:51;92110.59;;;14.52;100.00
17521;BME280;8878;-33.370;-70.552;2023-11-21T05:50:20;92117.88;;;14.46;100.00
17521;BME280;8878;-33.370;-70.552;2023-11-21T05:52:50;92119.03;;;14.40;100.00
17521;BME280;8878;-33.370;-70.552;2023-11-21T05:55:19;92113.47;;;14.37;100.00
17521;BME280;8878;-33.370;-70.552;2023-11-21T05:57:52;92120.38;;;14.38;100.00
17521;BME280;8878;-33.370;-70.552;2023-11-21T06:00:23;92115.69;;;14.30;100.00
17521;BME280;8878;-33.370;-70.552;2023-11-21T06:02:54;92114.41;;;14.08;100.00
17521;BME280;8878;-33.370;-70.552;2023-11-21T06:05:25;92128.28;;;14.05;100.00
17521;BME280;8878;-33.370;-70.552;2023-11-21T06:07:55;92112.97;;;14.16;100.00
17521;BME280;8878;-33.370;-70.552;2023-11-21T06:10:25;92110.59;;;14.15;100.00
17521;BME280;8878;-33.370;-70.552;2023-11-21T06:12:55;92104.19;;;14.21;100.00
17521;BME280;8878;-33.370;-70.552;2023-11-21T06:15:26;92106.88;;;14.16;100.00
17521;BME280;8878;-33.370;-70.552;2023-11-21T06:17:56;92111.69;;;13.95;100.00
17521;BME280;8878;-33.370;-70.552;2023-11-21T06:20:25;92105.03;;;13.97;100.00
17521;BME280;8878;-33.370;-70.552;2023-11-21T06:22:54;92105.97;;;14.06;100.00
17521;BME280;8878;-33.370;-70.552;2023-11-21T06:25:24;92109.19;;;14.03;100.00
17521;BME280;8878;-33.370;-70.552;2023-11-21T06:27:53;92110.69;;;14.09;100.00
17521;BME280;8878;-33.370;-70.552;2023-11-21T06:30:23;92108.88;;;13.86;100.00
17521;BME280;8878;-33.370;-70.552;2023-11-21T06:32:54;92095.88;;;13.71;100.00
17521;BME280;8878;-33.370;-70.552;2023-11-21T06:35:24;92106.50;;;13.66;100.00
17521;BME280;8878;-33.370;-70.552;2023-11-21T06:37:54;92104.00;;;13.56;100.00
17521;BME280;8878;-33.370;-70.552;2023-11-21T06:40:24;92099.16;;;13.63;100.00
17521;BME280;8878;-33.370;-70.552;2023-11-21T06:42:53;92099.34;;;13.66;100.00
17521;BME280;8878;-33.370;-70.552;2023-11-21T06:45:23;92092.25;;;13.62;100.00
17521;BME280;8878;-33.370;-70.552;2023-11-21T06:47:54;92088.19;;;13.69;100.00
17521;BME280;8878;-33.370;-70.552;2023-11-21T06:50:23;92086.44;;;13.79;100.00
17521;BME280;8878;-33.370;-70.552;2023-11-21T06:52:52;92086.75;;;13.77;100.00
17521;BME280;8878;-33.370;-70.552;2023-11-21T06:55:21;92083.25;;;13.82;100.00
17521;BME280;8878;-33.370;-70.552;2023-11-21T06:57:51;92078.72;;;13.82;100.00
17521;BME280;8878;-33.370;-70.552;2023-11-21T07:00:20;92081.16;;;13.79;100.00
17521;BME280;8878;-33.370;-70.552;2023-11-21T07:02:49;92084.09;;;13.77;100.00
17521;BME280;8878;-33.370;-70.552;2023-11-21T07:05:21;92078.81;;;13.77;100.00
17521;BME280;8878;-33.370;-70.552;2023-11-21T07:07:51;92077.66;;;13.83;100.00
17521;BME280;8878;-33.370;-70.552;2023-11-21T07:10:20;92066.41;;;13.91;100.00
17521;BME280;8878;-33.370;-70.552;2023-11-21T07:12:50;92068.28;;;13.91;100.00
17521;BME280;8878;-33.370;-70.552;2023-11-21T07:15:20;92076.59;;;13.84;100.00
17521;BME280;8878;-33.370;-70.552;2023-11-21T07:17:49;92067.84;;;13.84;100.00
17521;BME280;8878;-33.370;-70.552;2023-11-21T07:20:22;92068.03;;;13.87;100.00
17521;BME280;8878;-33.370;-70.552;2023-11-21T07:22:51;92067.47;;;13.90;100.00
17521;BME280;8878;-33.370;-70.552;2023-11-21T07:25:21;92067.47;;;13.90;100.00
17521;BME280;8878;-33.370;-70.552;2023-11-21T07:27:50;92075.34;;;13.95;100.00
17521;BME280;8878;-33.370;-70.552;2023-11-21T07:30:19;92070.56;;;13.97;100.00
17521;BME280;8878;-33.370;-70.552;2023-11-21T07:32:49;92066.31;;;13.96;100.00
17521;BME280;8878;-33.370;-70.552;2023-11-21T07:35:18;92065.63;;;13.91;100.00
17521;BME280;8878;-33.370;-70.552;2023-11-21T07:37:49;92067.41;;;13.95;100.00
17521;BME280;8878;-33.370;-70.552;2023-11-21T07:40:19;92059.81;;;13.89;100.00
17521;BME280;8878;-33.370;-70.552;2023-11-21T07:42:49;92066.53;;;13.81;100.00
17521;BME280;8878;-33.370;-70.552;2023-11-21T07:45:18;92064.03;;;13.71;100.00
17521;BME280;8878;-33.370;-70.552;2023-11-21T07:47:48;92062.75;;;13.68;100.00
17521;BME280;8878;-33.370;-70.552;2023-11-21T07:50:18;92069.84;;;13.73;100.00
17521;BME280;8878;-33.370;-70.552;2023-11-21T07:52:49;92066.34;;;13.78;100.00
17521;BME280;8878;-33.370;-70.552;2023-11-21T07:55:18;92064.53;;;13.92;100.00
17521;BME280;8878;-33.370;-70.552;2023-11-21T07:57:48;92057.84;;;13.94;100.00
17521;BME280;8878;-33.370;-70.552;2023-11-21T08:00:18;92062.00;;;14.00;100.00
17521;BME280;8878;-33.370;-70.552;2023-11-21T08:02:48;92050.03;;;14.03;100.00
17521;BME280;8878;-33.370;-70.552;2023-11-21T08:05:17;92054.00;;;14.05;100.00
17521;BME280;8878;-33.370;-70.552;2023-11-21T08:07:48;92050.91;;;13.98;100.00
17521;BME280;8878;-33.370;-70.552;2023-11-21T08:10:17;92045.50;;;13.71;100.00
17521;BME280;8878;-33.370;-70.552;2023-11-21T08:12:48;92052.19;;;13.45;100.00
17521;BME280;8878;-33.370;-70.552;2023-11-21T08:15:17;92054.00;;;13.49;100.00
17521;BME280;8878;-33.370;-70.552;2023-11-21T08:17:47;92041.03;;;13.66;100.00
17521;BME280;8878;-33.370;-70.552;2023-11-21T08:20:16;92036.38;;;13.77;100.00
17521;BME280;8878;-33.370;-70.552;2023-11-21T08:22:48;92038.44;;;13.80;100.00
17521;BME280;8878;-33.370;-70.552;2023-11-21T08:25:18;92037.97;;;13.78;100.00
17521;BME280;8878;-33.370;-70.552;2023-11-21T08:27:48;92046.69;;;13.60;100.00
17521;BME280;8878;-33.370;-70.552;2023-11-21T08:30:17;92048.66;;;13.30;100.00
17521;BME280;8878;-33.370;-70.552;2023-11-21T08:32:47;92062.19;;;13.29;100.00
17521;BME280;8878;-33.370;-70.552;2023-11-21T08:35:19;92061.84;;;13.12;100.00
17521;BME280;8878;-33.370;-70.552;2023-11-21T08:37:51;92067.47;;;13.05;100.00
17521;BME280;8878;-33.370;-70.552;2023-11-21T08:40:21;92062.97;;;13.06;100.00
17521;BME280;8878;-33.370;-70.552;2023-11-21T08:42:50;92059.03;;;13.03;100.00
17521;BME280;8878;-33.370;-70.552;2023-11-21T08:45:21;92065.13;;;13.04;100.00
17521;BME280;8878;-33.370;-70.552;2023-11-21T08:47:51;92061.53;;;13.18;100.00
17521;BME280;8878;-33.370;-70.552;2023-11-21T08:50:20;92072.78;;;13.29;100.00
17521;BME280;8878;-33.370;-70.552;2023-11-21T08:52:52;92076.38;;;13.38;100.00
17521;BME280;8878;-33.370;-70.552;2023-11-21T08:55:21;92076.81;;;13.26;100.00
17521;BME280;8878;-33.370;-70.552;2023-11-21T08:57:50;92071.00;;;13.24;100.00
17521;BME280;8878;-33.370;-70.552;2023-11-21T09:00:20;92071.72;;;13.30;100.00
17521;BME280;8878;-33.370;-70.552;2023-11-21T09:02:49;92068.22;;;13.35;100.00
17521;BME280;8878;-33.370;-70.552;2023-11-21T09:05:18;92060.22;;;13.40;100.00
17521;BME280;8878;-33.370;-70.552;2023-11-21T09:07:48;92053.41;;;13.33;100.00
17521;BME280;8878;-33.370;-70.552;2023-11-21T09:10:31;92053.75;;;13.27;100.00
17521;BME280;8878;-33.370;-70.552;2023-11-21T09:13:02;92046.94;;;13.21;100.00
17521;BME280;8878;-33.370;-70.552;2023-11-21T09:15:31;92051.38;;;13.25;100.00
17521;BME280;8878;-33.370;-70.552;2023-11-21T09:18:01;92045.06;;;12.98;100.00
17521;BME280;8878;-33.370;-70.552;2023-11-21T09:20:30;92048.31;;;12.89;100.00
17521;BME280;8878;-33.370;-70.552;2023-11-21T09:22:59;92033.91;;;12.77;100.00
17521;BME280;8878;-33.370;-70.552;2023-11-21T09:25:30;92033.94;;;12.72;100.00
17521;BME280;8878;-33.370;-70.552;2023-11-21T09:28:00;92032.88;;;12.73;100.00
17521;BME280;8878;-33.370;-70.552;2023-11-21T09:30:29;92029.84;;;12.84;100.00
17521;BME280;8878;-33.370;-70.552;2023-11-21T09:32:58;92023.44;;;12.90;100.00
17521;BME280;8878;-33.370;-70.552;2023-11-21T09:35:27;92022.13;;;12.88;100.00
17521;BME280;8878;-33.370;-70.552;2023-11-21T09:37:57;92020.06;;;12.85;100.00
17521;BME280;8878;-33.370;-70.552;2023-11-21T09:40:30;92015.81;;;12.84;100.00
17521;BME280;8878;-33.370;-70.552;2023-11-21T09:43:00;92024.31;;;12.81;100.00
17521;BME280;8878;-33.370;-70.552;2023-11-21T09:45:35;92021.22;;;12.98;100.00
17521;BME280;8878;-33.370;-70.552;2023-11-21T09:48:05;92023.47;;;13.09;100.00
17521;BME280;8878;-33.370;-70.552;2023-11-21T09:50:37;92020.50;;;13.16;100.00
17521;BME280;8878;-33.370;-70.552;2023-11-21T09:53:12;92026.44;;;13.03;100.00
17521;BME280;8878;-33.370;-70.552;2023-11-21T09:55:46;92023.53;;;13.04;100.00
17521;BME280;8878;-33.370;-70.552;2023-11-21T09:58:17;92036.84;;;12.99;100.00
17521;BME280;8878;-33.370;-70.552;2023-11-21T10:00:48;92029.34;;;13.06;100.00
17521;BME280;8878;-33.370;-70.552;2023-11-21T10:03:18;92040.41;;;13.13;100.00
17521;BME280;8878;-33.370;-70.552;2023-11-21T10:05:50;92040.34;;;13.18;100.00
17521;BME280;8878;-33.370;-70.552;2023-11-21T10:08:21;92045.72;;;13.08;100.00
17521;BME280;8878;-33.370;-70.552;2023-11-21T10:10:56;92049.16;;;13.14;100.00
17521;BME280;8878;-33.370;-70.552;2023-11-21T10:13:27;92046.25;;;13.34;100.00
17521;BME280;8878;-33.370;-70.552;2023-11-21T10:15:59;92053.50;;;13.47;100.00
17521;BME280;8878;-33.370;-70.552;2023-11-21T10:18:32;92051.38;;;13.25;100.00
17521;BME280;8878;-33.370;-70.552;2023-11-21T10:21:04;92048.09;;;13.10;100.00
17521;BME280;8878;-33.370;-70.552;2023-11-21T10:23:34;92050.25;;;13.31;100.00
17521;BME280;8878;-33.370;-70.552;2023-11-21T10:26:06;92056.66;;;13.49;100.00
17521;BME280;8878;-33.370;-70.552;2023-11-21T10:28:55;92058.44;;;13.54;100.00
17521;BME280;8878;-33.370;-70.552;2023-11-21T10:31:26;92053.94;;;13.54;100.00
17521;BME280;8878;-33.370;-70.552;2023-11-21T10:34:11;92058.44;;;13.54;100.00
17521;BME280;8878;-33.370;-70.552;2023-11-21T10:36:40;92067.25;;;13.68;100.00
17521;BME280;8878;-33.370;-70.552;2023-11-21T10:39:10;92075.50;;;13.66;100.00
17521;BME280;8878;-33.370;-70.552;2023-11-21T10:41:46;92077.63;;;13.46;100.00
17521;BME280;8878;-33.370;-70.552;2023-11-21T10:44:16;92076.75;;;13.50;100.00
17521;BME280;8878;-33.370;-70.552;2023-11-21T10:46:47;92070.81;;;13.58;100.00
17521;BME280;8878;-33.370;-70.552;2023-11-21T10:49:18;92071.34;;;13.60;100.00
17521;BME280;8878;-33.370;-70.552;2023-11-21T10:51:47;92076.19;;;13.72;100.00
17521;BME280;8878;-33.370;-70.552;2023-11-21T10:54:21;92089.63;;;13.81;100.00
17521;BME280;8878;-33.370;-70.552;2023-11-21T10:56:56;92076.06;;;13.82;100.00
17521;BME280;8878;-33.370;-70.552;2023-11-21T10:59:28;92084.09;;;13.96;100.00
17521;BME280;8878;-33.370;-70.552;2023-11-21T11:01:58;92084.63;;;13.98;100.00
17521;BME280;8878;-33.370;-70.552;2023-11-21T11:04:30;92083.75;;;13.84;100.00
17521;BME280;8878;-33.370;-70.552;2023-11-21T11:07:03;92084.38;;;13.94;100.00
17521;BME280;8878;-33.370;-70.552;2023-11-21T11:09:32;92093.41;;;13.93;100.00
17521;BME280;8878;-33.370;-70.552;2023-11-21T11:12:04;92095.72;;;13.81;100.00
17521;BME280;8878;-33.370;-70.552;2023-11-21T11:14:35;92102.22;;;13.89;100.00
17521;BME280;8878;-33.370;-70.552;2023-11-21T11:17:05;92104.81;;;13.94;100.00
17521;BME280;8878;-33.370;-70.552;2023-11-21T11:19:36;92111.41;;;14.15;100.00
17521;BME280;8878;-33.370;-70.552;2023-11-21T11:22:13;92106.66;;;14.31;100.00
17521;BME280;8878;-33.370;-70.552;2023-11-21T11:25:09;92100.72;;;14.39;100.00
17521;BME280;8878;-33.370;-70.552;2023-11-21T11:27:52;92105.38;;;14.47;100.00
17521;BME280;8878;-33.370;-70.552;2023-11-21T11:30:33;92098.31;;;14.37;100.00
17521;BME280;8878;-33.370;-70.552;2023-11-21T11:33:14;92094.97;;;14.50;100.00
17521;BME280;8878;-33.370;-70.552;2023-11-21T11:35:57;92087.94;;;14.73;100.00
17521;BME280;8878;-33.370;-70.552;2023-11-21T11:38:32;92090.63;;;14.87;100.00
17521;BME280;8878;-33.370;-70.552;2023-11-21T11:41:03;92091.41;;;14.87;100.00
17521;BME280;8878;-33.370;-70.552;2023-11-21T11:43:35;92089.66;;;14.97;100.00
17521;BME280;8878;-33.370;-70.552;2023-11-21T11:46:11;92089.34;;;14.84;100.00
17521;BME280;8878;-33.370;-70.552;2023-11-21T11:48:41;92098.31;;;14.88;100.00
17521;BME280;8878;-33.370;-70.552;2023-11-21T11:51:13;92090.63;;;15.01;100.00
17521;BME280;8878;-33.370;-70.552;2023-11-21T11:53:44;92088.72;;;15.20;100.00
17521;BME280;8878;-33.370;-70.552;2023-11-21T11:56:24;92087.22;;;15.41;100.00
17521;BME280;8878;-33.370;-70.552;2023-11-21T11:58:57;92079.25;;;15.69;100.00
17521;BME280;8878;-33.370;-70.552;2023-11-21T12:01:29;92073.00;;;15.87;100.00
17521;BME280;8878;-33.370;-70.552;2023-11-21T12:04:25;92061.53;;;16.00;100.00
17521;BME280;8878;-33.370;-70.552;2023-11-21T12:07:02;92063.00;;;16.06;100.00
17521;BME280;8878;-33.370;-70.552;2023-11-21T12:09:32;92076.00;;;16.08;100.00
17521;BME280;8878;-33.370;-70.552;2023-11-21T12:12:03;92080.97;;;16.23;100.00
17521;BME280;8878;-33.370;-70.552;2023-11-21T12:14:36;92079.59;;;16.25;98.94
17521;BME280;8878;-33.370;-70.552;2023-11-21T12:17:06;92088.31;;;16.39;99.16
17521;BME280;8878;-33.370;-70.552;2023-11-21T12:19:35;92087.41;;;16.44;99.80
17521;BME280;8878;-33.370;-70.552;2023-11-21T12:22:05;92088.63;;;16.38;99.35
17521;BME280;8878;-33.370;-70.552;2023-11-21T12:24:35;92091.06;;;16.48;100.00
17521;BME280;8878;-33.370;-70.552;2023-11-21T12:27:04;92100.66;;;16.58;96.65
17521;BME280;8878;-33.370;-70.552;2023-11-21T12:29:37;92096.34;;;16.62;97.14
17521;BME280;8878;-33.370;-70.552;2023-11-21T12:32:06;92105.53;;;16.78;96.69
17521;BME280;8878;-33.370;-70.552;2023-11-21T12:34:36;92099.03;;;16.93;96.76
17521;BME280;8878;-33.370;-70.552;2023-11-21T12:37:05;92110.25;;;16.81;92.65
17521;BME280;8878;-33.370;-70.552;2023-11-21T12:39:35;92111.31;;;17.02;91.36
17521;BME280;8878;-33.370;-70.552;2023-11-21T12:42:04;92109.75;;;17.01;91.21
17521;BME280;8878;-33.370;-70.552;2023-11-21T12:44:36;92117.38;;;16.94;89.24
17521;BME280;8878;-33.370;-70.552;2023-11-21T12:47:07;92117.34;;;17.16;92.78
17521;BME280;8878;-33.370;-70.552;2023-11-21T12:49:40;92111.88;;;17.21;89.26
17521;BME280;8878;-33.370;-70.552;2023-11-21T12:52:11;92123.38;;;17.31;89.96
17521;BME280;8878;-33.370;-70.552;2023-11-21T12:54:40;92126.38;;;17.38;90.61
17521;BME280;8878;-33.370;-70.552;2023-11-21T12:57:10;92122.03;;;17.11;90.93